createdAt,value
2022-12-08T00:05:44.599Z,55.42
2022-12-08T00:13:50.034Z,52.35
2022-12-08T00:21:58.447Z,54.72
2022-12-08T00:30:03.887Z,62.28
2022-12-08T00:38:11.846Z,56.90
2022-12-08T00:46:17.331Z,60.65
2022-12-08T00:54:25.856Z,80.55
2022-12-08T01:02:32.626Z,66.25
2022-12-08T01:10:42.467Z,75.18
2022-12-08T01:18:47.877Z,57.95
2022-12-08T01:26:55.940Z,57.67
2022-12-08T01:35:01.834Z,56.28
2022-12-08T01:43:09.917Z,53.75
2022-12-08T01:51:15.664Z,53.17
2022-12-08T01:59:23.912Z,51.90
2022-12-08T02:07:29.455Z,47.97
2022-12-08T02:15:44.704Z,45.95
2022-12-08T02:23:57.206Z,39.00
2022-12-08T02:32:20.989Z,40.72
2022-12-08T02:40:35.494Z,45.42
2022-12-08T02:48:41.483Z,38.45
2022-12-08T02:57:12.417Z,40.78
2022-12-08T03:05:32.629Z,46.88
2022-12-08T03:13:45.197Z,53.78
2022-12-08T03:21:53.463Z,48.97
2022-12-08T03:30:03.581Z,60.38
2022-12-08T03:38:12.709Z,46.25
2022-12-08T03:54:28.589Z,42.75
2022-12-08T04:02:36.866Z,37.10
2022-12-08T04:10:42.349Z,38.95
2022-12-08T04:18:50.766Z,60.83
2022-12-08T04:26:56.120Z,93.03
2022-12-08T04:35:04.145Z,39.92
2022-12-08T04:43:09.729Z,44.00
2022-12-08T04:51:21.713Z,31.27
2022-12-08T04:59:27.142Z,32.92
2022-12-08T05:07:35.396Z,42.65
2022-12-08T05:15:40.725Z,79.05
2022-12-08T05:23:48.734Z,36.63
2022-12-08T05:31:54.405Z,34.75
2022-12-08T05:40:03.986Z,47.42
2022-12-08T05:48:09.647Z,53.83
2022-12-08T05:56:18.096Z,33.95
2022-12-08T06:04:23.526Z,49.97
2022-12-08T06:12:31.587Z,35.22
2022-12-08T06:20:38.558Z,32.88
2022-12-08T06:28:46.943Z,31.60
2022-12-08T06:36:52.349Z,36.65
2022-12-08T06:45:09.364Z,33.28
2022-12-08T06:53:15.159Z,31.58
2022-12-08T07:01:23.338Z,53.47
2022-12-08T07:09:29.529Z,30.33
2022-12-08T07:17:37.590Z,34.85
2022-12-08T07:25:42.924Z,38.55
2022-12-08T07:33:51.258Z,92.88
2022-12-08T07:41:56.757Z,31.10
2022-12-08T07:50:05.401Z,29.23
2022-12-08T07:58:11.233Z,19.05
2022-12-08T08:06:19.358Z,20.05
2022-12-08T08:14:24.712Z,18.52
2022-12-08T08:22:32.825Z,19.92
2022-12-08T08:30:38.470Z,18.40
2022-12-08T08:38:46.755Z,15.52
2022-12-08T08:46:52.950Z,17.08
2022-12-08T08:55:02.690Z,17.15
2022-12-08T09:03:08.206Z,18.20
2022-12-08T09:11:18.694Z,17.42
2022-12-08T09:19:24.883Z,15.98
2022-12-08T09:27:34.185Z,19.30
2022-12-08T09:35:39.962Z,17.05
2022-12-08T09:44:03.813Z,17.35
2022-12-08T09:52:18.787Z,21.27
2022-12-08T10:00:27.481Z,16.80
2022-12-08T10:08:45.386Z,22.13
2022-12-08T10:17:00.034Z,37.13
2022-12-08T10:25:22.313Z,97.20
2022-12-08T10:33:31.354Z,45.42
2022-12-08T10:41:36.798Z,21.35
2022-12-08T10:49:48.570Z,20.58
2022-12-08T10:57:54.171Z,20.67
2022-12-08T11:06:09.118Z,18.25
2022-12-08T11:14:22.222Z,14.35
2022-12-08T11:22:33.743Z,19.27
2022-12-08T11:30:43.992Z,13.13
2022-12-08T11:38:55.041Z,16.92
2022-12-08T11:47:04.591Z,16.08
2022-12-08T11:55:37.188Z,17.80
2022-12-08T12:03:50.176Z,13.75
2022-12-08T12:12:24.631Z,11.45
2022-12-08T12:20:33.044Z,11.30
2022-12-08T12:28:47.127Z,11.82
2022-12-08T12:36:55.409Z,15.40
2022-12-08T12:45:30.173Z,13.50
2022-12-08T12:53:51.679Z,9.90
2022-12-08T13:02:02.824Z,12.68
2022-12-08T13:10:22.629Z,13.55
2022-12-08T13:18:39.327Z,13.45
2022-12-08T13:26:50.395Z,12.00
2022-12-08T13:35:00.803Z,13.35
2022-12-08T13:43:19.081Z,18.63
2022-12-08T14:00:03.429Z,17.60
2022-12-08T14:08:58.048Z,18.35
2022-12-08T14:16:56.332Z,17.52
2022-12-08T14:25:05.723Z,22.33
2022-12-08T14:33:18.092Z,20.15
2022-12-08T14:41:29.653Z,32.20
2022-12-08T14:49:35.946Z,30.63
2022-12-08T14:57:44.052Z,22.30
2022-12-08T15:05:53.368Z,24.27
2022-12-08T15:14:01.560Z,24.42
2022-12-08T15:22:16.725Z,25.30
2022-12-08T15:30:26.639Z,25.17
2022-12-08T15:38:33.529Z,25.42
2022-12-08T15:46:41.754Z,22.70
2022-12-08T15:54:47.385Z,20.35
2022-12-08T16:12:04.818Z,20.20
2022-12-08T16:20:03.901Z,18.13
2022-12-08T16:28:51.730Z,19.52
2022-12-08T16:36:44.079Z,19.75
2022-12-08T16:44:49.461Z,46.47
2022-12-08T16:53:02.563Z,45.95
2022-12-08T17:01:13.667Z,43.53
2022-12-08T17:09:45.927Z,42.40
2022-12-08T17:17:58.766Z,49.85
2022-12-08T17:26:08.099Z,51.05
2022-12-08T17:34:20.194Z,63.78
2022-12-08T17:42:31.703Z,54.75
2022-12-08T17:50:41.608Z,61.53
2022-12-08T17:58:54.805Z,58.88
2022-12-08T18:07:01.880Z,59.03
2022-12-08T18:15:17.194Z,57.17
2022-12-08T18:23:22.721Z,60.28
2022-12-08T18:31:31.905Z,70.88
2022-12-08T18:39:42.840Z,78.35
2022-12-08T18:47:54.870Z,71.35
2022-12-08T18:56:01.848Z,73.80
2022-12-08T19:04:28.726Z,54.40
2022-12-08T19:12:34.840Z,38.10
2022-12-08T19:20:42.940Z,41.95
2022-12-08T19:28:50.128Z,41.83
2022-12-08T19:36:59.974Z,50.35
2022-12-08T19:45:12.118Z,67.95
2022-12-08T19:53:21.135Z,69.13
2022-12-08T20:01:29.192Z,62.95
2022-12-08T20:09:37.985Z,58.88
2022-12-08T20:17:46.329Z,45.85
2022-12-08T20:25:57.031Z,41.13
2022-12-08T20:34:04.307Z,43.70
2022-12-08T20:42:15.569Z,49.75
2022-12-08T20:50:23.632Z,58.33
2022-12-08T20:58:31.975Z,53.08
2022-12-08T21:06:38.911Z,54.38
2022-12-08T21:14:52.437Z,65.72
2022-12-08T21:22:59.349Z,58.72
2022-12-08T21:31:14.413Z,52.65
2022-12-08T21:39:20.439Z,45.63
2022-12-08T21:47:28.999Z,49.63
2022-12-08T21:55:34.667Z,50.03
2022-12-08T22:03:46.871Z,49.47
2022-12-08T22:11:52.408Z,48.33
2022-12-08T22:20:00.550Z,45.47
2022-12-08T22:28:06.767Z,42.60
2022-12-08T22:36:19.967Z,38.35
2022-12-08T22:44:25.628Z,40.53
2022-12-08T22:52:33.720Z,41.83
2022-12-08T23:00:39.479Z,50.42
2022-12-08T23:08:48.165Z,50.78
2022-12-08T23:16:53.616Z,47.67
2022-12-08T23:25:01.707Z,75.78
2022-12-08T23:33:07.237Z,61.95
2022-12-08T23:41:17.461Z,58.83
2022-12-08T23:49:23.579Z,58.35
2022-12-08T23:57:32.445Z,58.25
